sensor_id;sensor_type;location;lat;lon;timestamp;P1;durP1;ratioP1;P2;durP2;ratioP2
55346;SDS011;41218;55.700;38.270;2023-04-03T00:03:21;6.40;;;3.67;;
55346;SDS011;41218;55.700;38.270;2023-04-03T00:08:21;6.60;;;3.50;;
55346;SDS011;41218;55.700;38.270;2023-04-03T00:13:22;5.70;;;3.65;;
55346;SDS011;41218;55.700;38.270;2023-04-03T00:18:23;6.30;;;3.53;;
55346;SDS011;41218;55.700;38.270;2023-04-03T00:23:24;6.30;;;3.43;;
55346;SDS011;41218;55.700;38.270;2023-04-03T00:28:24;6.73;;;3.47;;
55346;SDS011;41218;55.700;38.270;2023-04-03T00:33:25;5.75;;;3.45;;
55346;SDS011;41218;55.700;38.270;2023-04-03T00:38:26;5.73;;;3.17;;
55346;SDS011;41218;55.700;38.270;2023-04-03T00:43:27;8.83;;;3.60;;
55346;SDS011;41218;55.700;38.270;2023-04-03T00:48:49;5.25;;;3.35;;
55346;SDS011;41218;55.700;38.270;2023-04-03T00:53:50;5.10;;;3.35;;
55346;SDS011;41218;55.700;38.270;2023-04-03T01:04:30;5.60;;;3.58;;
55346;SDS011;41218;55.700;38.270;2023-04-03T01:09:35;5.53;;;3.05;;
55346;SDS011;41218;55.700;38.270;2023-04-03T01:14:37;5.80;;;3.45;;
55346;SDS011;41218;55.700;38.270;2023-04-03T01:19:38;8.73;;;3.40;;
55346;SDS011;41218;55.700;38.270;2023-04-03T01:24:45;7.90;;;3.42;;
55346;SDS011;41218;55.700;38.270;2023-04-03T01:29:47;5.68;;;3.38;;
55346;SDS011;41218;55.700;38.270;2023-04-03T01:34:48;7.73;;;3.27;;
55346;SDS011;41218;55.700;38.270;2023-04-03T01:39:51;6.35;;;3.38;;
55346;SDS011;41218;55.700;38.270;2023-04-03T01:44:51;6.37;;;3.37;;
55346;SDS011;41218;55.700;38.270;2023-04-03T01:49:52;5.60;;;3.63;;
55346;SDS011;41218;55.700;38.270;2023-04-03T01:54:52;8.30;;;3.67;;
55346;SDS011;41218;55.700;38.270;2023-04-03T01:59:53;6.07;;;3.33;;
55346;SDS011;41218;55.700;38.270;2023-04-03T02:04:53;7.13;;;3.57;;
55346;SDS011;41218;55.700;38.270;2023-04-03T02:09:54;7.15;;;3.47;;
55346;SDS011;41218;55.700;38.270;2023-04-03T02:14:55;7.13;;;3.25;;
55346;SDS011;41218;55.700;38.270;2023-04-03T02:19:56;4.57;;;2.83;;
55346;SDS011;41218;55.700;38.270;2023-04-03T02:24:56;5.57;;;3.50;;
55346;SDS011;41218;55.700;38.270;2023-04-03T02:29:57;6.43;;;3.10;;
55346;SDS011;41218;55.700;38.270;2023-04-03T02:34:57;7.57;;;3.60;;
55346;SDS011;41218;55.700;38.270;2023-04-03T02:39:58;6.18;;;3.47;;
55346;SDS011;41218;55.700;38.270;2023-04-03T02:44:59;6.13;;;3.25;;
55346;SDS011;41218;55.700;38.270;2023-04-03T02:50:00;6.97;;;3.58;;
55346;SDS011;41218;55.700;38.270;2023-04-03T02:55:01;8.33;;;4.03;;
55346;SDS011;41218;55.700;38.270;2023-04-03T03:00:01;7.60;;;3.97;;
55346;SDS011;41218;55.700;38.270;2023-04-03T03:05:03;8.48;;;4.38;;
55346;SDS011;41218;55.700;38.270;2023-04-03T03:10:04;14.70;;;5.13;;
55346;SDS011;41218;55.700;38.270;2023-04-03T03:15:05;14.20;;;6.55;;
55346;SDS011;41218;55.700;38.270;2023-04-03T03:25:07;15.70;;;7.87;;
55346;SDS011;41218;55.700;38.270;2023-04-03T03:30:08;25.02;;;10.43;;
55346;SDS011;41218;55.700;38.270;2023-04-03T03:35:09;18.55;;;9.27;;
55346;SDS011;41218;55.700;38.270;2023-04-03T03:40:10;23.50;;;9.67;;
55346;SDS011;41218;55.700;38.270;2023-04-03T03:45:12;25.08;;;10.48;;
55346;SDS011;41218;55.700;38.270;2023-04-03T03:50:13;25.70;;;11.70;;
55346;SDS011;41218;55.700;38.270;2023-04-03T03:55:13;30.73;;;12.87;;
55346;SDS011;41218;55.700;38.270;2023-04-03T04:00:14;26.42;;;12.98;;
55346;SDS011;41218;55.700;38.270;2023-04-03T04:05:15;38.72;;;15.30;;
55346;SDS011;41218;55.700;38.270;2023-04-03T04:10:16;31.03;;;14.83;;
55346;SDS011;41218;55.700;38.270;2023-04-03T04:15:16;35.27;;;15.87;;
55346;SDS011;41218;55.700;38.270;2023-04-03T04:20:17;36.75;;;17.10;;
55346;SDS011;41218;55.700;38.270;2023-04-03T04:25:18;39.33;;;17.70;;
55346;SDS011;41218;55.700;38.270;2023-04-03T04:30:18;40.00;;;17.53;;
55346;SDS011;41218;55.700;38.270;2023-04-03T04:35:19;45.77;;;19.67;;
55346;SDS011;41218;55.700;38.270;2023-04-03T04:40:19;48.87;;;20.83;;
55346;SDS011;41218;55.700;38.270;2023-04-03T04:45:20;45.65;;;19.98;;
55346;SDS011;41218;55.700;38.270;2023-04-03T04:50:21;45.50;;;20.27;;
55346;SDS011;41218;55.700;38.270;2023-04-03T04:55:22;50.97;;;21.83;;
55346;SDS011;41218;55.700;38.270;2023-04-03T05:00:22;44.80;;;20.70;;
55346;SDS011;41218;55.700;38.270;2023-04-03T05:05:23;47.15;;;20.50;;
55346;SDS011;41218;55.700;38.270;2023-04-03T05:10:23;41.57;;;18.47;;
55346;SDS011;41218;55.700;38.270;2023-04-03T05:15:24;28.37;;;12.30;;
55346;SDS011;41218;55.700;38.270;2023-04-03T05:20:24;23.77;;;11.03;;
55346;SDS011;41218;55.700;38.270;2023-04-03T05:25:25;20.97;;;10.80;;
55346;SDS011;41218;55.700;38.270;2023-04-03T05:30:26;23.40;;;10.77;;
55346;SDS011;41218;55.700;38.270;2023-04-03T05:35:26;20.67;;;10.27;;
55346;SDS011;41218;55.700;38.270;2023-04-03T05:40:27;21.80;;;9.57;;
55346;SDS011;41218;55.700;38.270;2023-04-03T05:45:27;21.40;;;10.07;;
55346;SDS011;41218;55.700;38.270;2023-04-03T05:50:28;17.20;;;9.07;;
55346;SDS011;41218;55.700;38.270;2023-04-03T05:55:28;15.83;;;8.37;;
55346;SDS011;41218;55.700;38.270;2023-04-03T06:00:29;15.40;;;8.60;;
55346;SDS011;41218;55.700;38.270;2023-04-03T06:05:30;16.08;;;8.80;;
55346;SDS011;41218;55.700;38.270;2023-04-03T06:10:30;14.70;;;7.93;;
55346;SDS011;41218;55.700;38.270;2023-04-03T06:15:31;16.30;;;7.93;;
55346;SDS011;41218;55.700;38.270;2023-04-03T06:20:32;18.90;;;8.00;;
55346;SDS011;41218;55.700;38.270;2023-04-03T06:25:32;14.95;;;8.30;;
55346;SDS011;41218;55.700;38.270;2023-04-03T06:30:33;19.38;;;7.85;;
55346;SDS011;41218;55.700;38.270;2023-04-03T06:40:36;16.83;;;8.02;;
55346;SDS011;41218;55.700;38.270;2023-04-03T06:45:37;15.33;;;8.13;;
55346;SDS011;41218;55.700;38.270;2023-04-03T06:50:37;18.77;;;8.77;;
55346;SDS011;41218;55.700;38.270;2023-04-03T06:55:38;16.70;;;8.43;;
55346;SDS011;41218;55.700;38.270;2023-04-03T07:00:38;15.57;;;8.13;;
55346;SDS011;41218;55.700;38.270;2023-04-03T07:05:39;15.40;;;8.33;;
55346;SDS011;41218;55.700;38.270;2023-04-03T07:10:40;17.25;;;8.55;;
55346;SDS011;41218;55.700;38.270;2023-04-03T07:15:40;17.97;;;7.73;;
55346;SDS011;41218;55.700;38.270;2023-04-03T07:20:41;13.97;;;7.43;;
55346;SDS011;41218;55.700;38.270;2023-04-03T07:25:42;14.90;;;7.73;;
55346;SDS011;41218;55.700;38.270;2023-04-03T07:30:50;15.45;;;7.53;;
55346;SDS011;41218;55.700;38.270;2023-04-03T07:35:59;16.52;;;8.32;;
55346;SDS011;41218;55.700;38.270;2023-04-03T07:41:00;16.08;;;7.40;;
55346;SDS011;41218;55.700;38.270;2023-04-03T07:46:04;20.35;;;8.02;;
55346;SDS011;41218;55.700;38.270;2023-04-03T07:51:05;14.05;;;8.05;;
55346;SDS011;41218;55.700;38.270;2023-04-03T07:56:07;18.98;;;8.45;;
55346;SDS011;41218;55.700;38.270;2023-04-03T08:01:08;17.10;;;8.63;;
55346;SDS011;41218;55.700;38.270;2023-04-03T08:06:09;17.10;;;8.73;;
55346;SDS011;41218;55.700;38.270;2023-04-03T08:11:10;16.27;;;8.88;;
55346;SDS011;41218;55.700;38.270;2023-04-03T08:16:13;16.48;;;9.20;;
55346;SDS011;41218;55.700;38.270;2023-04-03T08:21:17;15.60;;;8.32;;
55346;SDS011;41218;55.700;38.270;2023-04-03T08:26:20;18.73;;;8.87;;
55346;SDS011;41218;55.700;38.270;2023-04-03T08:31:21;16.83;;;8.18;;
55346;SDS011;41218;55.700;38.270;2023-04-03T08:36:25;17.42;;;8.48;;
55346;SDS011;41218;55.700;38.270;2023-04-03T08:41:48;15.50;;;8.32;;
55346;SDS011;41218;55.700;38.270;2023-04-03T08:51:54;21.02;;;8.48;;
55346;SDS011;41218;55.700;38.270;2023-04-03T08:56:57;18.83;;;8.45;;
55346;SDS011;41218;55.700;38.270;2023-04-03T09:02:02;16.40;;;8.98;;
55346;SDS011;41218;55.700;38.270;2023-04-03T09:07:21;17.27;;;8.70;;
55346;SDS011;41218;55.700;38.270;2023-04-03T09:12:39;15.80;;;8.80;;
55346;SDS011;41218;55.700;38.270;2023-04-03T09:23:04;18.45;;;8.35;;
55346;SDS011;41218;55.700;38.270;2023-04-03T09:28:15;17.33;;;8.43;;
55346;SDS011;41218;55.700;38.270;2023-04-03T09:33:16;17.83;;;9.20;;
55346;SDS011;41218;55.700;38.270;2023-04-03T09:38:19;16.83;;;8.38;;
55346;SDS011;41218;55.700;38.270;2023-04-03T09:43:25;15.25;;;8.10;;
55346;SDS011;41218;55.700;38.270;2023-04-03T09:48:29;13.90;;;7.43;;
55346;SDS011;41218;55.700;38.270;2023-04-03T09:53:40;15.10;;;7.23;;
55346;SDS011;41218;55.700;38.270;2023-04-03T09:58:46;16.33;;;7.40;;
55346;SDS011;41218;55.700;38.270;2023-04-03T10:04:02;12.77;;;7.60;;
55346;SDS011;41218;55.700;38.270;2023-04-03T10:09:26;13.40;;;6.65;;
55346;SDS011;41218;55.700;38.270;2023-04-03T10:14:29;14.07;;;6.93;;
55346;SDS011;41218;55.700;38.270;2023-04-03T10:24:43;12.20;;;6.90;;
55346;SDS011;41218;55.700;38.270;2023-04-03T10:36:11;11.07;;;5.80;;
55346;SDS011;41218;55.700;38.270;2023-04-03T10:40:59;10.63;;;6.15;;
55346;SDS011;41218;55.700;38.270;2023-04-03T10:46:10;10.73;;;6.35;;
55346;SDS011;41218;55.700;38.270;2023-04-03T10:51:29;10.57;;;5.78;;
55346;SDS011;41218;55.700;38.270;2023-04-03T10:56:41;10.00;;;5.53;;
55346;SDS011;41218;55.700;38.270;2023-04-03T11:01:45;9.10;;;5.72;;
55346;SDS011;41218;55.700;38.270;2023-04-03T11:06:54;11.27;;;5.20;;
55346;SDS011;41218;55.700;38.270;2023-04-03T11:12:04;7.68;;;4.90;;
55346;SDS011;41218;55.700;38.270;2023-04-03T11:27:23;12.68;;;5.00;;
55346;SDS011;41218;55.700;38.270;2023-04-03T11:37:51;7.50;;;4.63;;
55346;SDS011;41218;55.700;38.270;2023-04-03T11:42:54;7.47;;;4.88;;
55346;SDS011;41218;55.700;38.270;2023-04-03T11:48:05;9.60;;;4.95;;
55346;SDS011;41218;55.700;38.270;2023-04-03T11:53:28;8.50;;;4.95;;
55346;SDS011;41218;55.700;38.270;2023-04-03T11:58:34;11.27;;;5.50;;
55346;SDS011;41218;55.700;38.270;2023-04-03T12:29:23;11.65;;;5.95;;
55346;SDS011;41218;55.700;38.270;2023-04-03T12:45:00;8.70;;;5.32;;
55346;SDS011;41218;55.700;38.270;2023-04-03T12:55:24;7.57;;;4.68;;
55346;SDS011;41218;55.700;38.270;2023-04-03T13:05:33;7.40;;;4.63;;
55346;SDS011;41218;55.700;38.270;2023-04-03T13:15:45;7.50;;;4.40;;
55346;SDS011;41218;55.700;38.270;2023-04-03T13:20:49;7.43;;;4.05;;
55346;SDS011;41218;55.700;38.270;2023-04-03T13:31:33;8.80;;;4.47;;
55346;SDS011;41218;55.700;38.270;2023-04-03T13:36:29;8.13;;;3.80;;
55346;SDS011;41218;55.700;38.270;2023-04-03T13:41:36;5.57;;;3.97;;
55346;SDS011;41218;55.700;38.270;2023-04-03T13:46:38;7.53;;;4.40;;
55346;SDS011;41218;55.700;38.270;2023-04-03T13:51:39;6.30;;;4.45;;
55346;SDS011;41218;55.700;38.270;2023-04-03T13:56:40;6.27;;;4.30;;
55346;SDS011;41218;55.700;38.270;2023-04-03T14:06:51;6.85;;;4.13;;
55346;SDS011;41218;55.700;38.270;2023-04-03T14:11:56;7.43;;;4.40;;
55346;SDS011;41218;55.700;38.270;2023-04-03T14:17:02;9.73;;;4.35;;
55346;SDS011;41218;55.700;38.270;2023-04-03T14:22:12;6.47;;;4.20;;
55346;SDS011;41218;55.700;38.270;2023-04-03T14:27:35;8.43;;;4.75;;
55346;SDS011;41218;55.700;38.270;2023-04-03T14:32:38;8.52;;;4.80;;
55346;SDS011;41218;55.700;38.270;2023-04-03T14:37:38;8.77;;;4.57;;
55346;SDS011;41218;55.700;38.270;2023-04-03T14:42:39;6.97;;;4.15;;
55346;SDS011;41218;55.700;38.270;2023-04-03T14:47:42;6.73;;;4.57;;
55346;SDS011;41218;55.700;38.270;2023-04-03T14:52:47;8.13;;;4.15;;
55346;SDS011;41218;55.700;38.270;2023-04-03T14:57:49;7.55;;;4.30;;
55346;SDS011;41218;55.700;38.270;2023-04-03T15:02:50;8.45;;;4.63;;
55346;SDS011;41218;55.700;38.270;2023-04-03T15:07:55;7.78;;;4.70;;
55346;SDS011;41218;55.700;38.270;2023-04-03T15:12:56;9.73;;;4.50;;
55346;SDS011;41218;55.700;38.270;2023-04-03T15:17:57;7.38;;;4.55;;
55346;SDS011;41218;55.700;38.270;2023-04-03T15:22:57;7.38;;;4.22;;
55346;SDS011;41218;55.700;38.270;2023-04-03T15:28:01;7.90;;;4.50;;
55346;SDS011;41218;55.700;38.270;2023-04-03T15:33:01;7.65;;;4.45;;
55346;SDS011;41218;55.700;38.270;2023-04-03T15:38:02;8.70;;;4.43;;
55346;SDS011;41218;55.700;38.270;2023-04-03T15:43:03;6.67;;;4.23;;
55346;SDS011;41218;55.700;38.270;2023-04-03T15:48:04;10.57;;;4.32;;
55346;SDS011;41218;55.700;38.270;2023-04-03T15:58:06;7.80;;;4.83;;
55346;SDS011;41218;55.700;38.270;2023-04-03T16:03:08;9.27;;;5.07;;
55346;SDS011;41218;55.700;38.270;2023-04-03T16:08:11;9.45;;;4.70;;
55346;SDS011;41218;55.700;38.270;2023-04-03T16:13:13;8.43;;;4.82;;
55346;SDS011;41218;55.700;38.270;2023-04-03T16:18:14;7.25;;;4.80;;
55346;SDS011;41218;55.700;38.270;2023-04-03T16:23:15;7.35;;;4.72;;
55346;SDS011;41218;55.700;38.270;2023-04-03T16:28:17;9.85;;;5.03;;
55346;SDS011;41218;55.700;38.270;2023-04-03T16:33:17;9.80;;;5.07;;
55346;SDS011;41218;55.700;38.270;2023-04-03T16:38:21;8.07;;;5.05;;
55346;SDS011;41218;55.700;38.270;2023-04-03T16:43:22;8.15;;;4.93;;
55346;SDS011;41218;55.700;38.270;2023-04-03T16:48:22;8.83;;;5.30;;
55346;SDS011;41218;55.700;38.270;2023-04-03T16:53:23;10.03;;;5.57;;
55346;SDS011;41218;55.700;38.270;2023-04-03T16:58:25;8.68;;;5.30;;
55346;SDS011;41218;55.700;38.270;2023-04-03T17:03:26;10.68;;;6.00;;
55346;SDS011;41218;55.700;38.270;2023-04-03T17:08:28;12.05;;;6.30;;
55346;SDS011;41218;55.700;38.270;2023-04-03T17:13:28;16.17;;;7.45;;
55346;SDS011;41218;55.700;38.270;2023-04-03T17:18:32;9.98;;;6.25;;
55346;SDS011;41218;55.700;38.270;2023-04-03T17:23:33;12.98;;;6.25;;
55346;SDS011;41218;55.700;38.270;2023-04-03T17:28:36;12.65;;;7.07;;
55346;SDS011;41218;55.700;38.270;2023-04-03T17:33:38;17.63;;;7.05;;
55346;SDS011;41218;55.700;38.270;2023-04-03T17:38:38;15.83;;;7.60;;
55346;SDS011;41218;55.700;38.270;2023-04-03T17:43:39;12.70;;;7.30;;
55346;SDS011;41218;55.700;38.270;2023-04-03T17:48:40;14.30;;;7.80;;
55346;SDS011;41218;55.700;38.270;2023-04-03T17:53:40;13.57;;;7.13;;
55346;SDS011;41218;55.700;38.270;2023-04-03T17:58:43;13.85;;;7.15;;
55346;SDS011;41218;55.700;38.270;2023-04-03T18:08:49;13.00;;;7.53;;
55346;SDS011;41218;55.700;38.270;2023-04-03T18:13:52;14.77;;;7.78;;
55346;SDS011;41218;55.700;38.270;2023-04-03T18:18:54;17.48;;;7.82;;
55346;SDS011;41218;55.700;38.270;2023-04-03T18:23:55;13.80;;;7.87;;
55346;SDS011;41218;55.700;38.270;2023-04-03T18:28:59;14.40;;;7.82;;
55346;SDS011;41218;55.700;38.270;2023-04-03T18:34:02;17.88;;;8.25;;
55346;SDS011;41218;55.700;38.270;2023-04-03T18:39:02;15.18;;;8.35;;
55346;SDS011;41218;55.700;38.270;2023-04-03T18:44:04;15.95;;;8.30;;
55346;SDS011;41218;55.700;38.270;2023-04-03T18:49:07;15.88;;;8.80;;
55346;SDS011;41218;55.700;38.270;2023-04-03T18:54:08;17.08;;;9.00;;
55346;SDS011;41218;55.700;38.270;2023-04-03T18:59:09;15.50;;;8.60;;
55346;SDS011;41218;55.700;38.270;2023-04-03T19:04:10;16.97;;;8.23;;
55346;SDS011;41218;55.700;38.270;2023-04-03T19:09:10;14.93;;;8.38;;
55346;SDS011;41218;55.700;38.270;2023-04-03T19:14:11;17.88;;;9.20;;
55346;SDS011;41218;55.700;38.270;2023-04-03T19:19:12;20.90;;;9.27;;
55346;SDS011;41218;55.700;38.270;2023-04-03T19:24:12;18.47;;;9.87;;
55346;SDS011;41218;55.700;38.270;2023-04-03T19:29:13;18.00;;;8.73;;
55346;SDS011;41218;55.700;38.270;2023-04-03T19:34:14;19.83;;;9.48;;
55346;SDS011;41218;55.700;38.270;2023-04-03T19:39:15;17.10;;;9.10;;
55346;SDS011;41218;55.700;38.270;2023-04-03T19:44:15;21.30;;;10.63;;
55346;SDS011;41218;55.700;38.270;2023-04-03T19:49:16;17.93;;;9.70;;
55346;SDS011;41218;55.700;38.270;2023-04-03T19:54:16;16.07;;;9.27;;
55346;SDS011;41218;55.700;38.270;2023-04-03T19:59:17;17.47;;;9.40;;
55346;SDS011;41218;55.700;38.270;2023-04-03T20:04:17;17.47;;;9.13;;
55346;SDS011;41218;55.700;38.270;2023-04-03T20:09:18;17.93;;;9.70;;
55346;SDS011;41218;55.700;38.270;2023-04-03T20:14:20;16.83;;;9.02;;
55346;SDS011;41218;55.700;38.270;2023-04-03T20:19:21;18.10;;;9.00;;
55346;SDS011;41218;55.700;38.270;2023-04-03T20:24:25;18.05;;;8.68;;
55346;SDS011;41218;55.700;38.270;2023-04-03T20:29:27;16.85;;;9.00;;
55346;SDS011;41218;55.700;38.270;2023-04-03T20:34:28;20.93;;;9.37;;
55346;SDS011;41218;55.700;38.270;2023-04-03T20:39:28;18.90;;;9.60;;
55346;SDS011;41218;55.700;38.270;2023-04-03T20:44:29;14.60;;;8.80;;
55346;SDS011;41218;55.700;38.270;2023-04-03T20:49:31;16.65;;;9.02;;
55346;SDS011;41218;55.700;38.270;2023-04-03T20:54:31;16.60;;;9.10;;
55346;SDS011;41218;55.700;38.270;2023-04-03T20:59:32;18.52;;;8.73;;
55346;SDS011;41218;55.700;38.270;2023-04-03T21:04:36;15.32;;;8.50;;
55346;SDS011;41218;55.700;38.270;2023-04-03T21:20:49;19.85;;;9.20;;
55346;SDS011;41218;55.700;38.270;2023-04-03T21:25:49;17.95;;;9.55;;
55346;SDS011;41218;55.700;38.270;2023-04-03T21:30:50;16.40;;;8.90;;
55346;SDS011;41218;55.700;38.270;2023-04-03T21:35:50;16.70;;;8.90;;
55346;SDS011;41218;55.700;38.270;2023-04-03T21:40:56;18.92;;;9.70;;
55346;SDS011;41218;55.700;38.270;2023-04-03T21:45:57;16.23;;;9.05;;
55346;SDS011;41218;55.700;38.270;2023-04-03T21:56:05;20.83;;;8.82;;
55346;SDS011;41218;55.700;38.270;2023-04-03T22:01:12;16.40;;;8.30;;
55346;SDS011;41218;55.700;38.270;2023-04-03T22:06:14;19.08;;;9.02;;
55346;SDS011;41218;55.700;38.270;2023-04-03T22:11:15;17.45;;;8.30;;
55346;SDS011;41218;55.700;38.270;2023-04-03T22:16:16;17.83;;;8.77;;
55346;SDS011;41218;55.700;38.270;2023-04-03T22:21:16;16.37;;;8.43;;
55346;SDS011;41218;55.700;38.270;2023-04-03T22:26:17;15.73;;;8.27;;
55346;SDS011;41218;55.700;38.270;2023-04-03T22:31:18;15.03;;;8.23;;
55346;SDS011;41218;55.700;38.270;2023-04-03T22:36:19;16.88;;;8.32;;
55346;SDS011;41218;55.700;38.270;2023-04-03T22:41:20;16.83;;;8.68;;
55346;SDS011;41218;55.700;38.270;2023-04-03T22:46:21;14.57;;;8.38;;
55346;SDS011;41218;55.700;38.270;2023-04-03T22:51:21;16.33;;;8.27;;
55346;SDS011;41218;55.700;38.270;2023-04-03T22:56:22;16.90;;;8.43;;
55346;SDS011;41218;55.700;38.270;2023-04-03T23:01:22;16.73;;;8.30;;
55346;SDS011;41218;55.700;38.270;2023-04-03T23:06:24;13.20;;;7.65;;
55346;SDS011;41218;55.700;38.270;2023-04-03T23:11:25;20.25;;;8.52;;
55346;SDS011;41218;55.700;38.270;2023-04-03T23:16:26;15.77;;;7.90;;
55346;SDS011;41218;55.700;38.270;2023-04-03T23:21:27;14.93;;;8.25;;
55346;SDS011;41218;55.700;38.270;2023-04-03T23:26:27;15.73;;;7.97;;
55346;SDS011;41218;55.700;38.270;2023-04-03T23:31:28;14.90;;;7.87;;
55346;SDS011;41218;55.700;38.270;2023-04-03T23:36:28;17.10;;;8.67;;
55346;SDS011;41218;55.700;38.270;2023-04-03T23:41:29;15.80;;;8.33;;
55346;SDS011;41218;55.700;38.270;2023-04-03T23:46:30;14.68;;;8.40;;
55346;SDS011;41218;55.700;38.270;2023-04-03T23:51:30;16.00;;;8.40;;
55346;SDS011;41218;55.700;38.270;2023-04-03T23:56:31;16.50;;;8.07;;
